Time;durP1;ratioP1;P1;durP2;ratioP2;P2;SDS_P1;SDS_P2;PMS_P1;PMS_P2;Temp;Humidity;BMP_temperature;BMP_pressure;BME280_temperature;BME280_humidity;BME280_pressure;Samples;Min_cycle;Max_cycle;Signal;HPM_P1;HPM_P2
2022/09/22 00:00:14;;;;;;;1.00;0.70;;;;;;;11.67;78.59;101635.06;2062179;28;20521;-71
2022/09/22 00:01:27;;;;;;;8.13;1.15;;;;;;;11.64;78.47;101633.69;2064374;28;20046;-71
2022/09/22 00:02:32;;;;;;;3.88;0.80;;;;;;;11.65;78.74;101637.19;2050043;28;20043;-72
2022/09/22 00:03:39;;;;;;;3.22;0.60;;;;;;;11.66;78.44;101636.13;2049611;28;20338;-72
2022/09/22 00:04:41;;;;;;;1.80;0.70;;;;;;;11.69;78.68;101636.41;2071817;28;20042;-72
2022/09/22 00:05:44;;;;;;;0.77;0.55;;;;;;;11.71;78.53;101636.16;2071570;28;20049;-72
2022/09/22 00:06:50;;;;;;;2.67;0.90;;;;;;;11.73;78.32;101634.03;2064109;28;20054;-72
2022/09/22 00:07:52;;;;;;;3.38;0.80;;;;;;;11.75;78.46;101635.38;2056032;28;20046;-72
2022/09/22 00:08:59;;;;;;;1.15;0.70;;;;;;;11.75;78.44;101632.69;2056025;28;20049;-72
2022/09/22 00:10:06;;;;;;;2.20;0.77;;;;;;;11.78;78.12;101639.44;2064622;28;20034;-73
2022/09/22 00:11:12;;;;;;;2.63;0.75;;;;;;;11.74;78.14;101630.25;2072390;28;20034;-73
2022/09/22 00:12:20;;;;;;;2.20;0.60;;;;;;;11.76;77.99;101637.00;2079474;28;20409;-73
2022/09/22 00:13:40;;;;;;;1.38;0.65;;;;;;;11.78;78.10;101640.25;2072102;28;20062;-72
2022/09/22 00:14:43;;;;;;;1.02;0.70;;;;;;;11.81;78.14;101639.72;2071731;28;20058;-71
2022/09/22 00:15:46;;;;;;;1.27;0.73;;;;;;;11.82;78.21;101633.28;2063570;28;20065;-71
2022/09/22 00:16:49;;;;;;;1.13;0.70;;;;;;;11.86;78.05;101640.88;2055629;28;20045;-72
2022/09/22 00:17:54;;;;;;;1.85;0.80;;;;;;;11.83;77.89;101639.47;2071768;28;20045;-72
2022/09/22 00:19:01;;;;;;;1.42;0.88;;;;;;;11.78;77.99;101634.03;2063448;28;20046;-71
2022/09/22 00:20:04;;;;;;;1.92;0.70;;;;;;;11.77;77.75;101641.31;2055466;28;20046;-72
2022/09/22 00:21:11;;;;;;;1.85;0.70;;;;;;;11.77;77.95;101635.94;2056036;28;20034;-71
2022/09/22 00:22:16;;;;;;;2.70;0.85;;;;;;;11.71;77.74;101636.97;2071207;28;20061;-72
2022/09/22 00:23:26;;;;;;;2.85;0.60;;;;;;;11.66;78.02;101639.63;2063517;28;20064;-72
2022/09/22 00:24:34;;;;;;;3.72;0.75;;;;;;;11.66;78.49;101642.31;2065017;28;20043;-72
2022/09/22 00:25:44;;;;;;;2.05;0.68;;;;;;;11.69;78.31;101633.72;2071191;28;20038;-72
2022/09/22 00:26:50;;;;;;;0.70;0.50;;;;;;;11.69;78.19;101639.09;2078795;28;20045;-72
2022/09/22 00:27:57;;;;;;;0.88;0.70;;;;;;;11.73;78.74;101640.22;2079820;28;20453;-73
2022/09/22 00:29:03;;;;;;;1.77;0.65;;;;;;;11.74;78.55;101643.72;2079088;28;20049;-73
2022/09/22 00:30:08;;;;;;;1.30;0.55;;;;;;;11.76;78.91;101638.91;2079710;28;20168;-74
2022/09/22 00:31:32;;;;;;;1.55;0.50;;;;;;;11.76;79.03;101639.72;2079180;28;20045;-73
2022/09/22 00:32:38;;;;;;;1.15;0.60;;;;;;;11.73;79.05;101636.72;2071538;28;20034;-73
2022/09/22 00:33:40;;;;;;;1.05;0.57;;;;;;;11.71;79.19;101636.97;2072108;28;20038;-73
2022/09/22 00:34:42;;;;;;;1.35;0.60;;;;;;;11.71;79.05;101634.28;2063483;28;20440;-73
2022/09/22 00:35:56;;;;;;;2.42;0.68;;;;;;;11.76;79.42;101637.00;2048319;28;20511;-73
2022/09/22 00:36:58;;;;;;;1.98;0.60;;;;;;;11.75;79.08;101637.25;2058692;28;20038;-73
2022/09/22 00:38:06;;;;;;;1.45;0.60;;;;;;;11.75;79.26;101648.84;2072530;28;20050;-73
2022/09/22 00:39:15;;;;;;;0.93;0.60;;;;;;;11.71;79.42;101639.66;2078722;28;20026;-73
2022/09/22 00:40:20;;;;;;;1.08;0.60;;;;;;;11.67;79.42;101630.50;2072425;28;20046;-72
2022/09/22 00:41:28;;;;;;;0.85;0.40;;;;;;;11.62;79.92;101638.53;2079630;28;20045;-72
2022/09/22 00:42:33;;;;;;;1.25;0.50;;;;;;;11.66;80.07;101644.19;2071717;28;20139;-72
2022/09/22 00:43:40;;;;;;;2.33;0.75;;;;;;;11.67;80.00;101630.50;2063620;28;20510;-72
2022/09/22 00:44:51;;;;;;;1.95;0.40;;;;;;;11.68;80.39;101632.09;2064347;28;20054;-72
2022/09/22 00:46:04;;;;;;;1.23;0.60;;;;;;;11.66;80.57;101634.22;2057736;28;20628;-73
2022/09/22 00:47:20;;;;;;;1.00;0.52;;;;;;;11.64;80.36;101625.63;2065048;28;20061;-75
2022/09/22 00:48:26;;;;;;;;;;;;;;;11.65;80.77;101629.94;2063588;28;20039;-74
2022/09/22 00:49:37;;;;;;;0.80;0.50;;;;;;;11.65;80.99;101627.22;2063935;28;19914;-73
2022/09/22 00:50:42;;;;;;;0.93;0.60;;;;;;;11.66;80.74;101625.34;2071080;28;20030;-74
2022/09/22 00:51:45;;;;;;;2.97;0.88;;;;;;;11.64;80.87;101625.63;2071380;28;20041;-73
2022/09/22 00:52:55;;;;;;;0.63;0.55;;;;;;;11.66;81.16;101631.53;2070543;28;20048;-72
2022/09/22 00:54:02;;;;;;;1.70;0.70;;;;;;;11.66;81.49;101626.16;2071438;28;20045;-72
2022/09/22 00:55:20;;;;;;;1.85;0.60;;;;;;;11.63;81.17;101626.66;2070766;28;20045;-73
2022/09/22 00:56:27;;;;;;;2.08;0.52;;;;;;;11.66;81.66;101636.13;2065396;28;20126;-73
2022/09/22 00:57:38;;;;;;;0.82;0.52;;;;;;;11.69;81.76;101628.31;2062996;28;20034;-72
2022/09/22 00:58:53;;;;;;;1.63;0.70;;;;;;;11.72;81.79;101625.13;2063273;28;20057;-71
2022/09/22 00:59:54;;;;;;;0.90;0.70;;;;;;;11.75;81.64;101629.97;2065125;28;20048;-72
2022/09/22 01:00:57;;;;;;;1.25;0.60;;;;;;;11.77;81.55;101625.16;2071415;28;20490;-72
2022/09/22 01:01:59;;;;;;;1.95;0.95;;;;;;;11.77;81.86;101627.84;2079397;28;20033;-71
2022/09/22 01:03:06;;;;;;;1.38;0.73;;;;;;;11.77;81.56;101632.44;2071086;28;20053;-73
2022/09/22 01:04:09;;;;;;;1.20;0.70;;;;;;;11.78;81.50;101625.97;2064275;28;20057;-71
2022/09/22 01:05:12;;;;;;;3.45;0.70;;;;;;;11.80;81.58;101623.84;2055498;28;20045;-71
2022/09/22 01:06:19;;;;;;;1.27;0.70;;;;;;;11.80;81.56;101624.63;2063290;28;20057;-72
2022/09/22 01:07:25;;;;;;;1.27;0.60;;;;;;;11.82;81.68;101622.50;2070922;28;20493;-72
2022/09/22 01:08:33;;;;;;;1.60;0.95;;;;;;;11.83;81.50;101617.94;2055420;28;20371;-72
2022/09/22 01:09:35;;;;;;;1.60;0.63;;;;;;;11.85;81.41;101614.97;2056872;28;20039;-72
2022/09/22 01:10:40;;;;;;;4.07;0.98;;;;;;;11.89;81.30;101618.81;2063595;28;20042;-72
2022/09/22 01:11:45;;;;;;;0.82;0.80;;;;;;;11.90;81.64;101623.91;2055457;28;20045;-72
2022/09/22 01:13:06;;;;;;;3.03;0.57;;;;;;;11.92;81.26;101618.28;2063832;28;20043;-71
2022/09/22 01:14:38;;;;;;;2.03;0.82;;;;;;;11.93;81.36;101622.59;2079614;28;20037;-71
2022/09/22 01:16:12;;;;;;;1.70;0.90;;;;;;;11.93;81.38;101622.59;2071333;28;20046;-72
2022/09/22 01:17:34;;;;;;;1.88;0.75;;;;;;;11.91;81.63;101630.09;2067440;28;20057;-71
2022/09/22 01:18:56;;;;;;;0.90;0.68;;;;;;;11.88;81.57;101636.81;2071496;28;20078;-72
2022/09/22 01:20:30;;;;;;;2.03;0.70;;;;;;;11.85;81.48;101629.25;2071383;28;20050;-72
2022/09/22 01:21:41;;;;;;;1.10;0.65;;;;;;;11.87;81.79;101629.81;2075690;28;20033;-72
2022/09/22 01:23:14;;;;;;;2.83;0.68;;;;;;;11.91;81.88;101635.50;2071405;28;20038;-72
2022/09/22 01:24:43;;;;;;;1.88;0.60;;;;;;;11.90;82.02;101639.28;2067581;28;20038;-72
2022/09/22 01:25:59;;;;;;;0.98;0.70;;;;;;;11.86;81.78;101639.00;2066866;28;20715;-72
2022/09/22 01:27:31;;;;;;;1.00;0.60;;;;;;;11.77;81.51;101635.94;2063707;28;20057;-72
2022/09/22 01:28:55;;;;;;;6.15;1.35;;;;;;;11.76;81.27;101637.00;2055322;28;20051;-72
2022/09/22 01:30:20;;;;;;;3.05;0.50;;;;;;;11.69;81.21;101633.72;2057226;28;20039;-72
2022/09/22 01:31:54;;;;;;;1.27;0.60;;;;;;;11.65;81.30;101638.00;2065994;28;20072;-71
2022/09/22 01:32:57;;;;;;;0.80;0.60;;;;;;;11.61;81.09;101634.22;2080912;28;20037;-71
2022/09/22 01:34:21;;;;;;;0.70;0.60;;;;;;;11.65;81.17;101631.81;2078275;28;20543;-72
2022/09/22 01:35:30;;;;;;;1.60;0.80;;;;;;;11.63;80.74;101634.75;2079777;28;20060;-72
2022/09/22 01:36:49;;;;;;;1.83;0.90;;;;;;;11.66;80.88;101634.22;2087782;28;20041;-71
2022/09/22 01:38:06;;;;;;;3.00;0.73;;;;;;;11.67;80.97;101625.09;2084419;28;20045;-71
2022/09/22 01:39:18;;;;;;;1.98;1.00;;;;;;;11.65;81.07;101629.94;2079439;28;20044;-71
2022/09/22 01:40:57;;;;;;;1.20;0.77;;;;;;;11.64;80.90;101624.81;2064458;28;20050;-71
2022/09/22 01:42:47;;;;;;;1.83;0.80;;;;;;;11.63;81.27;101623.16;2068258;28;20044;-72
2022/09/22 01:44:00;;;;;;;2.00;0.70;;;;;;;11.64;81.18;101622.91;2072049;28;20064;-72
2022/09/22 01:45:05;;;;;;;2.25;0.57;;;;;;;11.66;81.07;101626.16;2073027;28;20041;-72
2022/09/22 01:46:32;;;;;;;4.05;0.73;;;;;;;11.67;81.02;101624.28;2065048;28;20053;-72
2022/09/22 01:47:55;;;;;;;3.35;0.80;;;;;;;11.65;81.18;101624.53;2073194;28;20045;-72
2022/09/22 01:49:01;;;;;;;1.10;0.60;;;;;;;11.69;81.21;101622.13;2072694;28;20034;-72
2022/09/22 01:50:19;;;;;;;3.47;0.75;;;;;;;11.68;81.14;101623.22;2064450;28;20057;-71
2022/09/22 01:51:33;;;;;;;1.13;0.80;;;;;;;11.68;81.19;101626.72;2065147;28;20057;-71
2022/09/22 01:52:39;;;;;;;1.10;0.65;;;;;;;11.70;81.01;101624.59;2069934;28;20045;-71
2022/09/22 01:53:48;;;;;;;2.05;0.68;;;;;;;11.64;81.02;101622.91;2064940;28;20046;-71
2022/09/22 01:55:20;;;;;;;1.67;0.70;;;;;;;11.64;81.15;101619.41;2065754;28;20049;-71
2022/09/22 01:56:29;;;;;;;2.00;0.77;;;;;;;11.66;81.28;101622.66;2073354;28;20284;-72
2022/09/22 01:57:43;;;;;;;0.77;0.60;;;;;;;11.70;81.31;101626.47;2072945;28;20050;-72
2022/09/22 01:58:52;;;;;;;0.98;0.60;;;;;;;11.71;81.30;101620.81;2058300;28;20042;-72
2022/09/22 02:00:00;;;;;;;0.77;0.52;;;;;;;11.75;81.42;101626.47;2057383;28;20047;-73
2022/09/22 02:01:14;;;;;;;1.33;0.90;;;;;;;11.77;81.60;101618.97;2067094;28;20042;-72
2022/09/22 02:02:34;;;;;;;1.58;0.80;;;;;;;11.75;81.67;101624.59;2072819;28;20096;-73
2022/09/22 02:03:48;;;;;;;2.03;0.82;;;;;;;11.76;81.45;101623.53;2067002;28;20053;-73
2022/09/22 02:04:57;;;;;;;1.42;0.70;;;;;;;11.77;81.54;101617.06;2066877;28;20263;-73
2022/09/22 02:06:07;;;;;;;2.90;0.90;;;;;;;11.74;81.55;101617.59;2073345;28;20898;-72
2022/09/22 02:07:23;;;;;;;1.23;0.77;;;;;;;11.72;81.32;101617.03;2078930;28;20049;-72
2022/09/22 02:08:38;;;;;;;1.33;0.80;;;;;;;11.70;81.46;101616.50;2080984;28;20036;-73
2022/09/22 02:09:49;;;;;;;1.27;0.70;;;;;;;11.72;81.51;101618.91;2078383;28;20045;-73
2022/09/22 02:10:53;;;;;;;0.77;0.60;;;;;;;11.73;81.36;101624.06;2072835;28;20400;-73
2022/09/22 02:11:59;;;;;;;1.75;0.70;;;;;;;11.72;81.11;101617.03;2065163;28;20049;-73
2022/09/22 02:13:01;;;;;;;1.92;0.90;;;;;;;11.75;81.35;101619.22;2073438;28;20390;-75
2022/09/22 02:14:07;;;;;;;1.00;0.60;;;;;;;11.75;81.08;101613.81;2072861;28;20036;-73
2022/09/22 02:16:35;;;;;;;1.95;0.90;;;;;;;11.75;81.22;101616.50;2088635;28;20055;-73
2022/09/22 02:17:40;;;;;;;1.08;0.63;;;;;;;11.73;81.42;101610.59;2081577;28;20425;-73
2022/09/22 02:18:53;;;;;;;3.83;0.90;;;;;;;11.76;81.32;101615.47;2080480;28;20369;-73
2022/09/22 02:19:56;;;;;;;6.47;1.00;;;;;;;11.77;81.03;101613.56;2080789;28;20133;-73
2022/09/22 02:21:01;;;;;;;2.38;0.88;;;;;;;11.78;81.37;101621.38;2072751;28;20030;-72
2022/09/22 02:22:09;;;;;;;2.03;0.70;;;;;;;11.80;81.39;101610.34;2065262;28;20053;-72
2022/09/22 02:23:14;;;;;;;2.22;0.73;;;;;;;11.80;81.23;101613.84;2057833;28;20050;-72
2022/09/22 02:24:36;;;;;;;1.40;0.77;;;;;;;11.79;81.47;101612.25;2065018;28;20038;-72
2022/09/22 02:25:48;;;;;;;0.90;0.70;;;;;;;11.79;81.42;101623.03;2064444;28;20042;-73
2022/09/22 02:26:51;;;;;;;3.67;0.80;;;;;;;11.74;81.07;101614.91;2057126;28;20039;-72
2022/09/22 02:27:56;;;;;;;1.50;0.70;;;;;;;11.72;81.31;101616.22;2048861;28;20039;-73
2022/09/22 02:29:09;;;;;;;4.55;0.95;;;;;;;11.72;81.03;101617.03;2057079;28;20046;-72
2022/09/22 02:30:13;;;;;;;1.42;0.60;;;;;;;11.65;81.11;101611.06;2068504;28;20041;-71
2022/09/22 02:31:21;;;;;;;4.50;0.70;;;;;;;11.55;80.98;101616.41;2056992;28;20039;-72
2022/09/22 02:32:25;;;;;;;1.95;0.60;;;;;;;11.53;80.78;101613.13;2058090;28;20053;-71
2022/09/22 02:33:32;;;;;;;0.75;0.50;;;;;;;11.51;80.89;101609.91;2072992;28;20048;-72
2022/09/22 02:34:35;;;;;;;1.70;0.65;;;;;;;11.41;81.00;101609.81;2080441;28;20037;-72
2022/09/22 02:35:47;;;;;;;1.30;0.43;;;;;;;11.32;81.03;101613.00;2072495;28;20037;-72
2022/09/22 02:37:30;;;;;;;1.13;0.60;;;;;;;11.29;81.35;101616.22;2057578;28;20042;-72
2022/09/22 02:38:49;;;;;;;1.58;0.70;;;;;;;11.27;81.71;101604.88;2064543;28;20053;-72
2022/09/22 02:40:05;;;;;;;0.47;0.40;;;;;;;11.25;82.15;101609.69;2067127;28;20049;-72
2022/09/22 02:41:27;;;;;;;1.10;0.50;;;;;;;11.25;81.59;101609.69;2057544;28;20034;-71
2022/09/22 02:43:16;;;;;;;1.10;0.40;;;;;;;11.18;81.56;101609.09;2051077;28;20514;-72
2022/09/22 02:44:35;;;;;;;0.45;0.30;;;;;;;11.14;81.94;101613.38;2062797;28;20050;-72
2022/09/22 02:45:50;;;;;;;0.85;0.40;;;;;;;11.14;81.84;101608.81;2080322;28;20511;-72
2022/09/22 02:46:59;;;;;;;0.80;0.50;;;;;;;11.14;82.05;101614.19;2071974;28;20044;-72
2022/09/22 02:48:10;;;;;;;0.40;0.32;;;;;;;11.16;82.14;101608.56;2061853;28;20125;-71
2022/09/22 02:49:16;;;;;;;0.60;0.45;;;;;;;11.18;82.29;101606.41;2064906;28;20598;-71
2022/09/22 02:50:22;;;;;;;1.55;0.60;;;;;;;11.16;82.13;101605.88;2064187;28;20486;-72
2022/09/22 02:51:24;;;;;;;1.10;0.47;;;;;;;11.17;82.13;101607.50;2056519;28;20051;-72
2022/09/22 02:52:27;;;;;;;1.77;0.50;;;;;;;11.18;81.84;101611.78;2064333;28;20046;-72
2022/09/22 02:53:32;;;;;;;2.08;0.52;;;;;;;11.18;82.12;101611.78;2072104;28;20042;-72
2022/09/22 02:54:38;;;;;;;1.35;0.68;;;;;;;11.18;81.71;101609.09;2063857;28;20061;-72
2022/09/22 02:55:40;;;;;;;1.70;0.63;;;;;;;11.14;82.14;101611.50;2056748;28;20039;-72
2022/09/22 02:56:43;;;;;;;4.97;0.70;;;;;;;11.17;81.89;101615.56;2064587;28;20042;-72
2022/09/22 02:57:45;;;;;;;3.45;0.75;;;;;;;11.18;82.05;101619.88;2056172;28;20054;-72
2022/09/22 02:58:50;;;;;;;2.78;0.82;;;;;;;11.20;82.13;101616.94;2048691;28;20672;-72
2022/09/22 02:59:53;;;;;;;4.63;0.85;;;;;;;11.25;82.04;101617.78;2056713;28;20424;-72
2022/09/22 03:00:55;;;;;;;1.60;0.90;;;;;;;11.30;82.09;101614.31;2072290;28;20041;-72
2022/09/22 03:02:00;;;;;;;1.73;0.80;;;;;;;11.33;81.72;101614.63;2064531;28;20351;-72
2022/09/22 03:03:05;;;;;;;3.70;1.05;;;;;;;11.34;81.98;101613.53;2064560;28;20489;-72
2022/09/22 03:04:10;;;;;;;2.63;1.10;;;;;;;11.35;81.64;101612.50;2063959;28;20502;-72
2022/09/22 03:05:12;;;;;;;5.03;0.95;;;;;;;11.41;81.77;101615.19;2072243;28;20053;-71
2022/09/22 03:06:15;;;;;;;2.97;0.80;;;;;;;11.42;81.83;101614.16;2078371;28;20562;-72
2022/09/22 03:07:37;;;;;;;2.28;0.82;;;;;;;11.43;82.01;101615.75;2071991;28;20038;-71
2022/09/22 03:08:41;;;;;;;2.30;0.98;;;;;;;11.46;81.96;101617.94;2075058;28;20041;-71
2022/09/22 03:09:44;;;;;;;2.72;0.68;;;;;;;11.44;82.35;101612.00;2072222;28;20046;-71
2022/09/22 03:10:51;;;;;;;2.85;0.52;;;;;;;11.45;82.50;101616.34;2064293;28;20042;-72
2022/09/22 03:11:56;;;;;;;1.98;0.80;;;;;;;11.48;81.96;101615.81;2064985;28;20049;-72
2022/09/22 03:13:02;;;;;;;3.65;0.88;;;;;;;11.47;82.07;101622.25;2064632;28;20524;-72
2022/09/22 03:14:07;;;;;;;1.75;0.90;;;;;;;11.43;82.46;101610.38;2063963;28;20034;-73
2022/09/22 03:15:13;;;;;;;1.67;0.85;;;;;;;11.45;82.63;101621.72;2064809;28;20042;-72
2022/09/22 03:16:19;;;;;;;2.03;0.60;;;;;;;11.43;82.90;101618.47;2072684;28;20045;-72
2022/09/22 03:17:21;;;;;;;3.40;0.70;;;;;;;11.42;82.92;101622.22;2072714;28;20041;-72
2022/09/22 03:18:23;;;;;;;3.35;0.73;;;;;;;11.45;82.88;101610.94;2071592;28;20037;-73
2022/09/22 03:19:25;;;;;;;2.60;0.90;;;;;;;11.48;83.40;101618.50;2064286;28;20380;-73
2022/09/22 03:20:33;;;;;;;1.35;0.70;;;;;;;11.51;83.18;101618.00;2072795;28;20631;-73
2022/09/22 03:21:38;;;;;;;2.67;0.80;;;;;;;11.52;83.58;101609.63;2071555;28;20153;-72
2022/09/22 03:22:42;;;;;;;1.85;0.77;;;;;;;11.55;83.21;101619.09;2071509;28;20034;-72
2022/09/22 03:23:44;;;;;;;1.38;0.80;;;;;;;11.54;83.60;101615.59;2063971;28;20038;-72
2022/09/22 03:24:49;;;;;;;1.30;0.77;;;;;;;11.53;83.64;101613.13;2063980;28;20035;-72
2022/09/22 03:25:54;;;;;;;1.63;0.90;;;;;;;11.58;83.63;101613.19;2071645;28;20057;-71
2022/09/22 03:26:58;;;;;;;1.67;0.88;;;;;;;11.60;83.68;101617.25;2071456;28;20025;-72
2022/09/22 03:28:04;;;;;;;1.95;0.70;;;;;;;11.62;83.69;101614.28;2064599;28;20042;-71
2022/09/22 03:29:11;;;;;;;1.20;0.90;;;;;;;11.64;83.33;101614.84;2064516;28;20066;-73
2022/09/22 03:30:20;;;;;;;1.08;0.88;;;;;;;11.62;83.51;101611.59;2063855;28;20038;-71
2022/09/22 03:31:29;;;;;;;2.20;0.90;;;;;;;11.61;83.61;101618.06;2064006;28;20398;-73
2022/09/22 03:32:32;;;;;;;7.85;1.30;;;;;;;11.56;83.77;101607.22;2065149;28;20038;-72
2022/09/22 03:33:37;;;;;;;0.98;0.80;;;;;;;11.57;83.83;101611.56;2063825;28;20065;-72
2022/09/22 03:34:42;;;;;;;3.78;0.90;;;;;;;11.59;84.00;101610.22;2064593;28;20042;-71
2022/09/22 03:35:44;;;;;;;1.95;1.20;;;;;;;11.59;84.04;101614.78;2063933;28;20034;-72
2022/09/22 03:36:49;;;;;;;2.25;0.98;;;;;;;11.62;83.96;101611.59;2068305;28;20030;-73
2022/09/22 03:37:51;;;;;;;1.95;1.00;;;;;;;11.62;83.77;101608.09;2063587;28;20038;-72
2022/09/22 03:38:54;;;;;;;5.10;1.00;;;;;;;11.64;84.11;101605.94;2063911;28;20039;-72
2022/09/22 03:39:59;;;;;;;2.33;0.88;;;;;;;11.66;83.75;101601.91;2071814;28;20383;-72
2022/09/22 03:41:04;;;;;;;1.60;1.00;;;;;;;11.67;83.79;101603.53;2061409;28;20035;-72
2022/09/22 03:42:12;;;;;;;1.92;0.98;;;;;;;11.67;83.84;101598.16;2071958;28;20046;-72
2022/09/22 03:43:14;;;;;;;5.35;1.08;;;;;;;11.70;83.73;101603.03;2071564;28;20413;-72
2022/09/22 03:44:20;;;;;;;1.63;0.80;;;;;;;11.72;83.67;101603.56;2064067;28;20046;-72
2022/09/22 03:45:23;;;;;;;2.85;1.02;;;;;;;11.72;83.63;101594.66;2069899;28;20521;-72
2022/09/22 03:46:29;;;;;;;1.63;0.90;;;;;;;11.73;83.54;101607.91;2071466;28;20030;-72
2022/09/22 03:47:31;;;;;;;2.40;1.00;;;;;;;11.75;83.44;101600.34;2064204;28;20625;-72
2022/09/22 03:48:38;;;;;;;2.28;1.30;;;;;;;11.76;83.56;101603.88;2062799;28;20034;-73
2022/09/22 03:49:42;;;;;;;2.30;0.95;;;;;;;11.74;83.49;101590.66;2080065;28;20046;-73
2022/09/22 03:50:46;;;;;;;2.08;1.15;;;;;;;11.75;83.49;101594.97;2080264;28;20034;-73
2022/09/22 03:51:52;;;;;;;2.85;0.90;;;;;;;11.76;83.43;101595.78;2072166;28;20037;-72
2022/09/22 03:52:57;;;;;;;2.67;1.10;;;;;;;11.76;83.66;101593.91;2080147;28;20057;-72
2022/09/22 03:54:02;;;;;;;1.92;0.93;;;;;;;11.74;83.37;101597.94;2058037;28;20128;-72
2022/09/22 03:55:06;;;;;;;2.70;1.08;;;;;;;11.75;83.64;101599.53;2071855;28;20037;-71
2022/09/22 03:56:11;;;;;;;4.22;1.25;;;;;;;11.76;83.65;101599.28;2072176;28;20393;-70
2022/09/22 03:57:16;;;;;;;2.10;0.80;;;;;;;11.76;83.51;101593.91;2071856;28;20044;-72
2022/09/22 03:58:21;;;;;;;3.55;0.90;;;;;;;11.76;83.34;101595.78;2072235;28;20046;-74
2022/09/22 03:59:31;;;;;;;2.35;0.88;;;;;;;11.75;83.69;101589.56;2071909;28;20050;-73
2022/09/22 04:00:34;;;;;;;1.55;0.80;;;;;;;11.76;83.66;101585.81;2071730;28;20049;-72
2022/09/22 04:01:36;;;;;;;2.08;0.88;;;;;;;11.77;83.37;101600.09;2071806;28;20411;-73
2022/09/22 04:02:38;;;;;;;3.70;0.98;;;;;;;11.76;83.88;101595.78;2055711;28;20043;-73
2022/09/22 04:03:43;;;;;;;3.00;1.05;;;;;;;11.75;83.67;101589.56;2055381;28;20058;-73
2022/09/22 04:04:48;;;;;;;2.50;0.90;;;;;;;11.73;83.42;101597.13;2062763;28;20049;-72
2022/09/22 04:05:50;;;;;;;2.55;1.52;;;;;;;11.73;83.75;101596.31;2062060;28;20026;-73
2022/09/22 04:07:00;;;;;;;2.88;0.80;;;;;;;11.71;83.45;101599.25;2063402;28;20505;-73
2022/09/22 04:08:02;;;;;;;4.85;1.20;;;;;;;11.71;83.49;101596.56;2055477;28;20042;-72
2022/09/22 04:09:04;;;;;;;2.08;0.88;;;;;;;11.68;83.73;101590.88;2046768;28;20039;-73
2022/09/22 04:10:12;;;;;;;3.28;1.05;;;;;;;11.67;83.85;101600.84;2057006;28;20813;-72
2022/09/22 04:11:17;;;;;;;2.22;0.85;;;;;;;11.65;83.54;101600.28;2055550;28;20050;-72
2022/09/22 04:12:26;;;;;;;1.52;0.80;;;;;;;11.66;83.78;101599.22;2056168;28;20046;-75
2022/09/22 04:13:30;;;;;;;2.40;0.90;;;;;;;11.65;83.78;101603.00;2071400;28;20038;-74
2022/09/22 04:14:40;;;;;;;1.25;0.95;;;;;;;11.62;83.70;101600.00;2077922;28;20120;-74
2022/09/22 04:15:45;;;;;;;3.72;0.90;;;;;;;11.59;83.46;101596.75;2070560;28;20041;-73
2022/09/22 04:16:47;;;;;;;1.70;0.85;;;;;;;11.56;83.45;101599.97;2054201;28;20043;-73
2022/09/22 04:17:49;;;;;;;5.03;1.20;;;;;;;11.56;83.69;101601.84;2054729;28;20054;-73
2022/09/22 04:18:55;;;;;;;1.45;1.00;;;;;;;11.52;83.42;101606.94;2065087;28;20038;-73
2022/09/22 04:20:04;;;;;;;1.23;0.80;;;;;;;11.49;83.63;101596.69;2063384;28;20050;-74
2022/09/22 04:21:14;;;;;;;1.50;0.77;;;;;;;11.49;83.32;101603.97;2070259;28;20050;-74
2022/09/22 04:22:20;;;;;;;2.08;0.80;;;;;;;11.50;83.69;101605.56;2078393;28;20045;-73
2022/09/22 04:23:25;;;;;;;3.08;1.15;;;;;;;11.51;83.61;101604.53;2070257;28;20045;-73
2022/09/22 04:24:27;;;;;;;2.28;0.80;;;;;;;11.53;83.49;101607.75;2051887;28;20042;-73
2022/09/22 04:25:35;;;;;;;2.28;0.77;;;;;;;11.51;83.62;101610.72;2070742;28;20053;-74
2022/09/22 04:26:38;;;;;;;2.30;0.85;;;;;;;11.51;83.39;101615.31;2070725;28;20041;-75
2022/09/22 04:27:41;;;;;;;1.88;0.70;;;;;;;11.49;83.33;101612.03;2062567;28;20034;-75
2022/09/22 04:28:46;;;;;;;1.10;0.80;;;;;;;11.46;83.29;101616.06;2062946;28;20102;-74
2022/09/22 04:29:48;;;;;;;1.50;0.70;;;;;;;11.41;83.15;101616.00;2070515;28;20045;-75
2022/09/22 04:30:50;;;;;;;2.72;0.98;;;;;;;11.36;83.07;101606.03;2071225;28;20050;-73
2022/09/22 04:32:05;;;;;;;2.75;0.90;;;;;;;11.27;83.08;101615.63;2069712;28;20045;-70
2022/09/22 04:33:11;;;;;;;3.50;0.93;;;;;;;11.19;83.13;101610.75;2070980;28;20042;-72
2022/09/22 04:34:12;;;;;;;5.13;1.00;;;;;;;11.20;83.21;101612.38;2070027;28;20269;-72
2022/09/22 04:35:17;;;;;;;1.77;0.95;;;;;;;11.12;83.68;101619.00;2061564;28;20054;-73
2022/09/22 04:36:21;;;;;;;4.18;1.27;;;;;;;11.14;83.60;101618.78;2063340;28;20049;-71
2022/09/22 04:37:23;;;;;;;2.05;0.95;;;;;;;11.12;83.89;101621.69;2068079;28;20053;-73
2022/09/22 04:38:33;;;;;;;1.48;1.02;;;;;;;11.16;83.83;101607.72;2062527;28;20045;-73
2022/09/22 04:39:38;;;;;;;3.28;0.70;;;;;;;11.17;83.83;101604.78;2054119;28;20049;-72
2022/09/22 04:40:45;;;;;;;2.08;0.80;;;;;;;11.20;84.38;101615.06;2054767;28;20054;-73
2022/09/22 04:41:47;;;;;;;2.83;1.10;;;;;;;11.19;84.21;101602.66;2061588;28;20057;-73
2022/09/22 04:42:49;;;;;;;1.73;1.05;;;;;;;11.19;84.22;101613.44;2054361;28;20077;-73
2022/09/22 04:43:54;;;;;;;3.33;1.23;;;;;;;11.20;84.01;101611.56;2054310;28;20550;-72
2022/09/22 04:45:01;;;;;;;4.97;1.00;;;;;;;11.23;84.30;101611.84;2062392;28;20046;-72
2022/09/22 04:46:05;;;;;;;4.30;0.73;;;;;;;11.26;84.06;101602.44;2070110;28;20049;-73
2022/09/22 04:47:09;;;;;;;2.55;0.75;;;;;;;11.28;84.17;101617.25;2070123;28;20038;-73
2022/09/22 04:48:12;;;;;;;1.55;0.85;;;;;;;11.26;84.07;101607.84;2062027;28;20433;-73
2022/09/22 04:49:14;;;;;;;2.10;0.80;;;;;;;11.23;84.12;101605.66;2078541;28;20593;-73
2022/09/22 04:50:24;;;;;;;1.15;0.70;;;;;;;11.22;83.81;101602.13;2078379;28;20045;-73
2022/09/22 04:51:26;;;;;;;2.80;0.90;;;;;;;11.25;83.95;101608.88;2078412;28;20045;-72
2022/09/22 04:52:31;;;;;;;2.78;0.75;;;;;;;11.25;84.15;101603.50;2078842;28;20053;-74
2022/09/22 04:53:36;;;;;;;2.35;0.90;;;;;;;11.21;83.89;101605.09;2077414;28;20977;-72
2022/09/22 04:54:38;;;;;;;2.17;1.00;;;;;;;11.17;84.08;101609.38;2051134;28;20034;-72
2022/09/22 04:55:46;;;;;;;1.95;0.93;;;;;;;11.19;84.43;101604.53;2062636;28;20042;-74
2022/09/22 04:56:48;;;;;;;1.52;0.85;;;;;;;11.19;84.44;101610.75;2054507;28;20066;-76
2022/09/22 04:57:58;;;;;;;1.73;0.75;;;;;;;11.22;84.38;101604.81;2061547;28;20034;-73
2022/09/22 04:59:01;;;;;;;2.42;0.80;;;;;;;11.21;84.11;101608.59;2061650;28;20045;-72
2022/09/22 05:00:07;;;;;;;2.30;1.00;;;;;;;11.23;84.67;101611.03;2066406;28;20414;-72
2022/09/22 05:01:11;;;;;;;4.00;0.80;;;;;;;11.27;84.71;101609.44;2069452;28;20418;-72
2022/09/22 05:02:15;;;;;;;1.88;0.77;;;;;;;11.26;84.51;101605.94;2069972;28;20085;-73
2022/09/22 05:03:20;;;;;;;2.42;1.00;;;;;;;11.28;84.85;101611.88;2069512;28;20057;-71
2022/09/22 05:04:23;;;;;;;3.25;0.88;;;;;;;11.31;84.62;101610.56;2077284;28;20429;-75
2022/09/22 05:05:26;;;;;;;2.05;0.90;;;;;;;11.35;84.72;101606.28;2077497;28;20058;-72
2022/09/22 05:06:30;;;;;;;1.48;0.70;;;;;;;11.36;84.10;101614.09;2069518;28;20050;-72
2022/09/22 05:07:32;;;;;;;2.45;0.90;;;;;;;11.35;84.71;101612.50;2060219;28;20046;-72
2022/09/22 05:08:37;;;;;;;1.75;0.82;;;;;;;11.34;84.45;101612.72;2069949;28;20077;-72
2022/09/22 05:09:42;;;;;;;1.23;0.73;;;;;;;11.40;84.23;101613.59;2078514;28;20068;-72
2022/09/22 05:10:44;;;;;;;5.75;0.70;;;;;;;11.44;84.21;101612.00;2078016;28;20049;-72
2022/09/22 05:11:47;;;;;;;3.03;0.70;;;;;;;11.42;84.50;101611.47;2077583;28;20041;-71
2022/09/22 05:12:51;;;;;;;1.00;0.68;;;;;;;11.45;84.48;101617.13;2070134;28;20623;-72
2022/09/22 05:13:57;;;;;;;1.13;0.70;;;;;;;11.48;84.40;101615.81;2078337;28;20037;-73
2022/09/22 05:15:00;;;;;;;3.03;0.80;;;;;;;11.53;84.06;101613.13;2078931;28;20025;-72
2022/09/22 05:16:06;;;;;;;1.50;1.05;;;;;;;11.53;84.14;101608.56;2077966;28;20124;-73
2022/09/22 05:17:08;;;;;;;1.50;0.77;;;;;;;11.54;84.31;101614.78;2070728;28;20034;-73
2022/09/22 05:18:13;;;;;;;5.05;1.10;;;;;;;11.54;84.00;101614.78;2080080;28;20045;-73